University, MS

4:12 AM CDT on April 23, 2017 (GMT -0500)
BMHNM | | Change Station

Elev 442 ft 34.35 °N, 89.53 °W | Updated 32 seconds ago

Light Rain
Light Rain
51.5 °F
Feels Like 51.5 °F
N
0.0
Wind Variable Wind from WNW

Today
High -- | Low -- °F
--% Chance of Precip.
Yesterday
High -- | Low -- °F
Precip. -- in
Pressure 29.88 in
Visibility 2.5 miles
Clouds Mostly Cloudy 300 ft
Overcast 800 ft
Dew Point 50 °F
Humidity 95%
Rainfall 0.02 in
Snow Depth Not available.
6:16 AM 7:36 PM
Waning Crescent, 13% visible
METAR KUOX 230855Z AUTO 31007KT 2 1/2SM -RA BKN003 OVC008 10/10 A2988 RMK AO2
Pressure 29.88 in
Visibility 2.5 miles
Clouds Mostly Cloudy 300 ft
Overcast 800 ft
Dew Point 50 °F
Humidity 95%
Rainfall 0.02 in
Snow Depth Not available.
6:16 AM 7:36 PM
Waning Crescent, 13% visible
METAR KUOX 230855Z AUTO 31007KT 2 1/2SM -RA BKN003 OVC008 10/10 A2988 RMK AO2

Get Severe Weather Alerts

Thanks for signing up!

Be on the lookout for a verification email in your inbox.

You'll start receiving the daily forecast at 8 AM.

×

10-Day Weather Forecast

Almanac

Astronomy

Apr. 23, 2017 Rise Set
Actual Time
Civil Twilight
Nautical Twilight
Astronomical Twilight
Moon
Length of Visible Light
Length of Day
Tomorrow will be .
, % of the Moon is Illuminated

Today's Extremes

State Highs State Lows

Community

WunderPhotos

WunderBlog® & News

Nearby

Air Quality

  Air Quality AQ Index Pollutant
Not available.

Snow Depth

Station Depth Elevation

Earthquake Activity

City Distance Mag. Time & Date
Minimum magnitude displayed is 2.5.

Coastal Water Temperatures

Place Temperature

Stations

Nearby Weather Stations

Station Location Temp. Windchill Dew Point Humidity Wind Precip. Elev Updated Type
                   

Watches & Warnings

There are currently no watches in effect.